createdAt,value
2022-12-18T00:00:15.147Z,101627.63
2022-12-18T00:03:22.342Z,101629.31
2022-12-18T00:06:34.538Z,101640.41
2022-12-18T00:09:40.575Z,101646.38
2022-12-18T00:12:47.372Z,101653.19
2022-12-18T00:15:51.475Z,101665.09
2022-12-18T00:18:58.073Z,101671.09
2022-12-18T00:22:03.296Z,101667.69
2022-12-18T00:25:06.625Z,101681.31
2022-12-18T00:28:10.814Z,101687.28
2022-12-18T00:31:21.474Z,101696.66
2022-12-18T00:34:26.005Z,101695.78
2022-12-18T00:37:30.405Z,101700.88
2022-12-18T00:40:32.917Z,101700.03
2022-12-18T00:43:40.303Z,101699.19
2022-12-18T00:46:45.435Z,101701.72
2022-12-18T00:49:51.499Z,101706.00
2022-12-18T00:52:55.936Z,101706.00
2022-12-18T00:56:00.960Z,101708.53
2022-12-18T00:59:05.673Z,101713.69
2022-12-18T01:02:12.714Z,101721.34
2022-12-18T01:05:18.623Z,101739.25
2022-12-18T01:08:21.815Z,101729.81
2022-12-18T01:11:25.310Z,101745.16
2022-12-18T01:14:30.276Z,101740.88
2022-12-18T01:17:35.899Z,101738.28
2022-12-18T01:20:40.337Z,101746.81
2022-12-18T01:23:43.665Z,101751.94
2022-12-18T01:26:51.317Z,101753.66
2022-12-18T01:29:54.303Z,101752.81
2022-12-18T01:32:59.760Z,101756.19
2022-12-18T01:36:03.811Z,101757.06
2022-12-18T01:39:11.668Z,101763.03
2022-12-18T01:42:21.718Z,101763.91
2022-12-18T01:45:31.719Z,101764.75
2022-12-18T01:48:39.164Z,101774.06
2022-12-18T01:51:44.107Z,101770.66
2022-12-18T01:54:51.703Z,101771.53
2022-12-18T01:57:58.307Z,101778.28
2022-12-18T02:01:03.947Z,101785.94
2022-12-18T02:04:27.870Z,101787.66
2022-12-18T02:07:48.090Z,101794.41
2022-12-18T02:11:05.278Z,101788.38
2022-12-18T02:14:17.421Z,101799.37
2022-12-18T02:17:25.830Z,101791.69
2022-12-18T02:20:54.938Z,101795.91
2022-12-18T02:24:19.023Z,101801.84
2022-12-18T02:27:22.536Z,101795.87
2022-12-18T02:30:26.754Z,101806.94
2022-12-18T02:33:33.844Z,101814.56
2022-12-18T02:36:42.953Z,101813.63
2022-12-18T02:39:49.932Z,101820.37
2022-12-18T02:42:54.768Z,101821.25
2022-12-18T02:46:01.040Z,101826.25
2022-12-18T02:49:16.098Z,101833.00
2022-12-18T02:52:43.479Z,101824.56
2022-12-18T02:56:09.897Z,101833.97
2022-12-18T02:59:22.640Z,101839.16
2022-12-18T03:02:55.162Z,101842.50
2022-12-18T03:06:12.213Z,101846.75
2022-12-18T03:09:29.110Z,101857.84
2022-12-18T03:12:38.479Z,101853.53
2022-12-18T03:15:50.135Z,101865.41
2022-12-18T03:19:04.716Z,101860.19
2022-12-18T03:22:13.980Z,101874.63
2022-12-18T03:25:18.697Z,101863.63
2022-12-18T03:28:25.144Z,101870.50
2022-12-18T03:31:33.380Z,101874.59
2022-12-18T03:34:43.440Z,101883.16
2022-12-18T03:37:47.361Z,101884.00
2022-12-18T03:41:04.975Z,101891.50
2022-12-18T03:44:29.672Z,101898.34
2022-12-18T03:47:51.693Z,101906.12
2022-12-18T03:51:01.863Z,101912.22
2022-12-18T03:54:08.217Z,101904.59
2022-12-18T03:57:31.079Z,101904.37
2022-12-18T04:00:35.604Z,101898.37
2022-12-18T04:03:43.705Z,101899.25
2022-12-18T04:06:50.293Z,101900.75
2022-12-18T04:09:57.980Z,101913.59
2022-12-18T04:13:01.788Z,101919.53
2022-12-18T04:16:08.832Z,101915.37
2022-12-18T04:19:16.891Z,101924.75
2022-12-18T04:22:23.148Z,101922.13
2022-12-18T04:25:28.034Z,101930.56
2022-12-18T04:28:31.370Z,101925.28
2022-12-18T04:31:35.348Z,101924.44
2022-12-18T04:34:41.762Z,101924.41
2022-12-18T04:37:47.241Z,101926.78
2022-12-18T04:40:51.641Z,101935.06
2022-12-18T04:43:55.031Z,101938.31
2022-12-18T04:47:00.884Z,101938.22
2022-12-18T04:50:06.434Z,101953.50
2022-12-18T04:53:13.123Z,101957.03
2022-12-18T04:56:19.004Z,101967.16
2022-12-18T04:59:24.624Z,101964.47
2022-12-18T05:02:32.496Z,101971.38
2022-12-18T05:05:42.778Z,101965.44
2022-12-18T05:08:45.495Z,101968.03
2022-12-18T05:11:50.410Z,101980.66
2022-12-18T05:14:54.208Z,101978.19
2022-12-18T05:17:58.564Z,101979.00
2022-12-18T05:21:02.680Z,101981.44
2022-12-18T05:24:07.006Z,101981.31
2022-12-18T05:27:11.656Z,101983.00
2022-12-18T05:30:15.744Z,101990.81
2022-12-18T05:33:23.807Z,101996.72
2022-12-18T05:36:27.763Z,102000.88
2022-12-18T05:39:31.116Z,102008.44
2022-12-18T05:42:35.640Z,102001.59
2022-12-18T05:45:40.473Z,102009.06
2022-12-18T05:48:44.328Z,102020.16
2022-12-18T05:51:49.745Z,102013.53
2022-12-18T05:54:55.332Z,102016.03
2022-12-18T05:57:58.324Z,102022.78
2022-12-18T06:01:09.445Z,102029.44
2022-12-18T06:04:13.057Z,102025.94
2022-12-18T06:07:20.490Z,102025.00
2022-12-18T06:10:23.842Z,102030.84
2022-12-18T06:13:27.862Z,102034.16
2022-12-18T06:16:32.071Z,102031.50
2022-12-18T06:19:35.203Z,102034.16
2022-12-18T06:22:40.864Z,102040.94
2022-12-18T06:25:44.721Z,102042.59
2022-12-18T06:28:48.024Z,102046.87
2022-12-18T06:31:51.806Z,102052.78
2022-12-18T06:34:58.555Z,102068.84
2022-12-18T06:38:03.695Z,102066.34
2022-12-18T06:41:14.100Z,102069.00
2022-12-18T06:44:18.030Z,102072.56
2022-12-18T06:47:22.852Z,102082.94
2022-12-18T06:50:26.103Z,102092.25
2022-12-18T06:53:29.843Z,102090.50
2022-12-18T06:56:34.681Z,102084.81
2022-12-18T06:59:38.789Z,102090.78
2022-12-18T07:02:42.987Z,102107.66
2022-12-18T07:05:46.199Z,102117.06
2022-12-18T07:08:50.719Z,102112.72
2022-12-18T07:11:53.986Z,102116.97
2022-12-18T07:14:57.996Z,102116.47
2022-12-18T07:18:01.295Z,102130.16
2022-12-18T07:21:08.787Z,102130.34
2022-12-18T07:24:12.936Z,102145.13
2022-12-18T07:27:16.539Z,102138.44
2022-12-18T07:30:20.213Z,102150.16
2022-12-18T07:33:24.256Z,102147.66
2022-12-18T07:36:27.727Z,102168.50
2022-12-18T07:39:31.872Z,102164.53
2022-12-18T07:42:36.798Z,102170.56
2022-12-18T07:45:41.450Z,102171.50
2022-12-18T07:48:49.455Z,102174.25
2022-12-18T07:51:57.132Z,102183.19
2022-12-18T07:55:00.306Z,102182.56
2022-12-18T07:58:04.652Z,102191.28
2022-12-18T08:01:13.404Z,102197.47
2022-12-18T08:04:19.048Z,102204.47
2022-12-18T08:07:22.399Z,102200.38
2022-12-18T08:10:26.132Z,102213.34
2022-12-18T08:13:30.018Z,102219.53
2022-12-18T08:16:35.001Z,102213.69
2022-12-18T08:19:39.400Z,102222.22
2022-12-18T08:22:44.437Z,102218.94
2022-12-18T08:25:48.965Z,102218.12
2022-12-18T08:28:53.080Z,102218.94
2022-12-18T08:31:57.125Z,102223.31
2022-12-18T08:35:02.128Z,102227.78
2022-12-18T08:38:05.631Z,102231.41
2022-12-18T08:41:12.408Z,102234.88
2022-12-18T08:44:34.571Z,102232.38
2022-12-18T08:47:37.843Z,102233.31
2022-12-18T08:50:41.242Z,102233.31
2022-12-18T08:53:46.483Z,102235.00
2022-12-18T08:56:52.313Z,102243.66
2022-12-18T08:59:55.328Z,102248.84
2022-12-18T09:02:59.061Z,102249.69
2022-12-18T09:06:03.150Z,102259.03
2022-12-18T09:09:08.595Z,102260.87
2022-12-18T09:12:13.717Z,102265.19
2022-12-18T09:15:18.254Z,102272.03
2022-12-18T09:18:24.502Z,102268.59
2022-12-18T09:21:35.790Z,102272.06
2022-12-18T09:24:43.382Z,102267.00
2022-12-18T09:27:52.127Z,102267.03
2022-12-18T09:30:57.275Z,102263.59
2022-12-18T09:34:01.168Z,102261.09
2022-12-18T09:37:04.370Z,102267.97
2022-12-18T09:40:10.026Z,102264.56
2022-12-18T09:43:22.527Z,102263.72
2022-12-18T09:46:35.507Z,102263.72
2022-12-18T09:49:47.027Z,102259.44
2022-12-18T09:52:58.011Z,102264.59
2022-12-18T09:56:06.016Z,102272.28
2022-12-18T09:59:37.275Z,102269.72
2022-12-18T10:02:42.060Z,102276.56
2022-12-18T10:06:05.371Z,102267.13
2022-12-18T10:09:30.569Z,102264.53
2022-12-18T10:13:04.060Z,102264.53
2022-12-18T10:16:18.285Z,102270.53
2022-12-18T10:19:41.290Z,102262.84
2022-12-18T10:22:54.625Z,102263.72
2022-12-18T10:26:10.747Z,102260.28
2022-12-18T10:29:15.750Z,102259.44
2022-12-18T10:32:22.672Z,102260.25
2022-12-18T10:35:27.973Z,102250.00
2022-12-18T10:38:33.932Z,102251.69
2022-12-18T10:41:38.661Z,102257.69
2022-12-18T10:44:43.000Z,102249.06
2022-12-18T10:47:52.487Z,102252.50
2022-12-18T10:51:12.844Z,102255.06
2022-12-18T10:54:24.310Z,102261.03
2022-12-18T10:57:46.148Z,102256.75
2022-12-18T11:01:04.595Z,102255.81
2022-12-18T11:04:19.664Z,102254.09
2022-12-18T11:07:23.811Z,102252.38
2022-12-18T11:10:32.777Z,102240.25
2022-12-18T11:13:36.312Z,102233.25
2022-12-18T11:20:33.703Z,102237.59
2022-12-18T11:23:40.990Z,102231.53
2022-12-18T11:26:46.140Z,102228.09
2022-12-18T11:29:54.033Z,102228.97
2022-12-18T11:33:14.052Z,102238.34
2022-12-18T11:36:19.882Z,102238.19
2022-12-18T11:39:41.095Z,102236.50
2022-12-18T11:42:57.425Z,102230.50
2022-12-18T11:46:19.296Z,102226.03
2022-12-18T11:49:23.041Z,102226.03
2022-12-18T11:52:40.160Z,102226.94
2022-12-18T11:56:06.092Z,102226.06
2022-12-18T11:59:27.375Z,102216.78
2022-12-18T12:02:31.551Z,102220.16
2022-12-18T12:06:09.635Z,102218.41
2022-12-18T12:10:03.407Z,102211.66
2022-12-18T12:13:46.863Z,102213.22
2022-12-18T12:17:17.089Z,102210.63
2022-12-18T12:20:53.143Z,102211.50
2022-12-18T12:24:20.610Z,102209.66
2022-12-18T12:27:42.225Z,102214.78
2022-12-18T12:30:52.182Z,102209.72
2022-12-18T12:34:11.456Z,102210.69
2022-12-18T12:37:39.534Z,102211.50
2022-12-18T12:41:02.251Z,102212.28
2022-12-18T12:44:11.617Z,102215.66
2022-12-18T12:47:27.646Z,102213.97
2022-12-18T12:50:35.522Z,102222.56
2022-12-18T12:53:41.752Z,102227.75
2022-12-18T12:57:19.110Z,102228.59
2022-12-18T13:00:24.215Z,102247.56
2022-12-18T13:03:44.455Z,102243.31
2022-12-18T13:07:14.857Z,102244.97
2022-12-18T13:10:19.777Z,102244.97
2022-12-18T13:13:25.431Z,102252.72
2022-12-18T13:16:31.185Z,102251.03
2022-12-18T13:19:35.656Z,102257.91
2022-12-18T13:22:48.316Z,102256.22
2022-12-18T13:26:12.108Z,102253.66
2022-12-18T13:29:44.273Z,102267.44
2022-12-18T13:32:48.188Z,102266.69
2022-12-18T13:36:16.066Z,102258.94
2022-12-18T13:39:25.811Z,102260.66
2022-12-18T13:42:51.016Z,102264.94
2022-12-18T13:46:22.903Z,102269.22
2022-12-18T13:49:42.467Z,102273.59
2022-12-18T13:52:48.109Z,102272.72
2022-12-18T13:55:53.567Z,102282.22
2022-12-18T13:59:09.437Z,102284.88
2022-12-18T14:02:21.975Z,102290.06
2022-12-18T14:05:31.604Z,102282.38
2022-12-18T14:08:43.264Z,102285.84
2022-12-18T14:11:52.429Z,102292.69
2022-12-18T14:14:56.853Z,102288.41
2022-12-18T14:18:03.933Z,102293.59
2022-12-18T14:21:10.103Z,102291.03
2022-12-18T14:24:19.648Z,102291.03
2022-12-18T14:27:29.092Z,102289.38
2022-12-18T14:30:37.216Z,102297.09
2022-12-18T14:33:41.173Z,102297.09
2022-12-18T14:36:57.707Z,102300.56
2022-12-18T14:40:11.233Z,102298.84
2022-12-18T14:43:15.998Z,102299.69
2022-12-18T14:46:36.335Z,102303.12
2022-12-18T14:49:44.683Z,102319.38
2022-12-18T14:52:48.296Z,102320.22
2022-12-18T14:55:54.364Z,102319.34
2022-12-18T14:59:07.684Z,102327.88
2022-12-18T15:02:27.947Z,102333.81
2022-12-18T15:05:34.354Z,102325.22
2022-12-18T15:08:40.664Z,102330.28
2022-12-18T15:11:48.700Z,102338.03
2022-12-18T15:14:53.157Z,102347.41
2022-12-18T15:18:03.815Z,102343.88
2022-12-18T15:21:17.046Z,102346.38
2022-12-18T15:24:29.555Z,102353.06
2022-12-18T15:27:40.220Z,102351.31
2022-12-18T15:31:21.886Z,102357.22
2022-12-18T15:34:29.329Z,102361.44
2022-12-18T15:37:33.737Z,102370.81
2022-12-18T15:40:37.236Z,102369.06
2022-12-18T15:43:40.244Z,102371.44
2022-12-18T15:46:44.822Z,102381.63
2022-12-18T15:49:49.299Z,102379.84
2022-12-18T15:52:56.659Z,102390.06
2022-12-18T15:56:19.620Z,102390.81
2022-12-18T15:59:24.884Z,102394.09
2022-12-18T16:02:30.153Z,102407.81
2022-12-18T16:05:33.956Z,102397.44
2022-12-18T16:08:45.004Z,102402.53
2022-12-18T16:11:49.532Z,102405.09
2022-12-18T16:14:55.283Z,102411.09
2022-12-18T16:18:02.579Z,102407.78
2022-12-18T16:21:05.872Z,102406.00
2022-12-18T16:24:26.851Z,102417.09
2022-12-18T16:27:33.559Z,102422.06
2022-12-18T16:30:39.199Z,102423.66
2022-12-18T16:33:45.060Z,102426.22
2022-12-18T16:36:48.361Z,102428.81
2022-12-18T16:39:52.059Z,102435.78
2022-12-18T16:42:56.008Z,102432.25
2022-12-18T16:46:03.493Z,102433.91
2022-12-18T16:49:11.061Z,102438.22
2022-12-18T16:52:17.224Z,102442.34
2022-12-18T16:55:24.002Z,102455.75
2022-12-18T16:58:28.435Z,102449.69
2022-12-18T17:01:33.332Z,102451.31
2022-12-18T17:04:37.086Z,102451.31
2022-12-18T17:07:40.476Z,102447.84
2022-12-18T17:10:46.635Z,102435.06
2022-12-18T17:13:52.294Z,102428.97
2022-12-18T17:20:24.343Z,102429.91
2022-12-18T17:23:31.776Z,102432.50
2022-12-18T17:26:40.586Z,102427.38
2022-12-18T17:29:50.336Z,102428.19
2022-12-18T17:32:55.476Z,102429.75
2022-12-18T17:36:00.441Z,102425.28
2022-12-18T17:39:05.035Z,102432.81
2022-12-18T17:42:12.061Z,102427.63
2022-12-18T17:45:19.357Z,102439.72
2022-12-18T17:48:28.272Z,102438.12
2022-12-18T17:51:31.268Z,102449.91
2022-12-18T17:54:36.000Z,102457.41
2022-12-18T17:57:40.996Z,102457.34
2022-12-18T18:00:44.028Z,102443.72
2022-12-18T18:03:53.828Z,102440.59
2022-12-18T18:06:58.025Z,102448.16
2022-12-18T18:10:01.630Z,102443.69
2022-12-18T18:13:44.922Z,102446.41
2022-12-18T18:16:52.791Z,102448.13
2022-12-18T18:19:56.827Z,102447.00
2022-12-18T18:23:04.199Z,102459.66
2022-12-18T18:26:11.307Z,102451.03
2022-12-18T18:29:20.025Z,102450.13
2022-12-18T18:32:24.927Z,102444.06
2022-12-18T18:35:52.890Z,102442.38
2022-12-18T18:38:55.812Z,102451.97
2022-12-18T18:42:00.124Z,102462.84
2022-12-18T18:45:07.414Z,102468.69
2022-12-18T18:48:11.326Z,102466.03
2022-12-18T18:51:21.500Z,102467.69
2022-12-18T18:54:30.921Z,102469.31
2022-12-18T18:57:35.563Z,102468.38
2022-12-18T19:00:39.899Z,102479.44
2022-12-18T19:03:47.576Z,102484.56
2022-12-18T19:06:51.174Z,102478.53
2022-12-18T19:09:56.112Z,102482.91
2022-12-18T19:13:21.219Z,102478.13
2022-12-18T19:16:29.700Z,102488.22
2022-12-18T19:19:35.310Z,102487.97
2022-12-18T19:22:41.669Z,102492.16
2022-12-18T19:25:45.523Z,102493.84
2022-12-18T19:28:51.241Z,102497.16
2022-12-18T19:31:54.185Z,102500.47
2022-12-18T19:34:57.822Z,102502.91
2022-12-18T19:38:01.410Z,102516.41
2022-12-18T19:41:09.011Z,102519.81
2022-12-18T19:44:16.714Z,102512.13
2022-12-18T19:47:23.285Z,102515.50
2022-12-18T19:50:26.439Z,102517.38
2022-12-18T19:53:31.107Z,102517.38
2022-12-18T19:56:39.825Z,102526.62
2022-12-18T19:59:42.652Z,102534.34
2022-12-18T20:02:48.926Z,102536.84
2022-12-18T20:05:54.117Z,102529.16
2022-12-18T20:09:00.480Z,102524.06
2022-12-18T20:12:05.318Z,102521.47
2022-12-18T20:15:11.379Z,102522.19
2022-12-18T20:18:14.532Z,102546.88
2022-12-18T20:21:22.836Z,102539.16
2022-12-18T20:24:29.050Z,102546.03
2022-12-18T20:27:34.832Z,102553.75
2022-12-18T20:30:39.127Z,102555.63
2022-12-18T20:33:47.617Z,102553.88
2022-12-18T20:36:52.396Z,102558.28
2022-12-18T20:39:55.714Z,102554.12
2022-12-18T20:43:00.836Z,102557.66
2022-12-18T20:46:09.602Z,102550.28
2022-12-18T20:49:13.083Z,102553.72
2022-12-18T20:52:26.487Z,102565.44
2022-12-18T20:55:30.996Z,102559.47
2022-12-18T20:58:33.676Z,102571.34
2022-12-18T21:01:37.528Z,102557.66
2022-12-18T21:04:44.393Z,102572.97
2022-12-18T21:07:47.355Z,102582.41
2022-12-18T21:10:51.473Z,102575.66
2022-12-18T21:13:57.063Z,102579.13
2022-12-18T21:17:03.896Z,102581.91
2022-12-18T21:20:07.532Z,102583.75
2022-12-18T21:23:16.577Z,102584.59
2022-12-18T21:26:26.818Z,102589.59
2022-12-18T21:29:31.959Z,102581.09
2022-12-18T21:32:43.550Z,102576.81
2022-12-18T21:35:46.633Z,102576.78
2022-12-18T21:38:49.649Z,102564.84
2022-12-18T21:42:14.473Z,102572.47
2022-12-18T21:45:17.556Z,102568.16
2022-12-18T21:48:20.389Z,102568.25
2022-12-18T21:51:23.462Z,102560.53
2022-12-18T21:54:28.622Z,102567.72
2022-12-18T21:57:37.624Z,102570.50
2022-12-18T22:00:52.808Z,102567.72
2022-12-18T22:03:57.476Z,102569.28
2022-12-18T22:07:07.145Z,102570.91
2022-12-18T22:10:19.485Z,102559.97
2022-12-18T22:13:23.914Z,102559.41
2022-12-18T22:16:26.572Z,102564.59
2022-12-18T22:19:29.232Z,102567.03
2022-12-18T22:22:39.515Z,102559.37
2022-12-18T22:26:05.566Z,102566.06
2022-12-18T22:29:45.709Z,102559.09
2022-12-18T22:33:08.632Z,102575.06
2022-12-18T22:40:26.621Z,102567.31
2022-12-18T22:43:34.279Z,102575.66
2022-12-18T22:46:50.752Z,102579.91
2022-12-18T22:50:07.982Z,102580.59
2022-12-18T22:53:12.567Z,102577.19
2022-12-18T22:56:24.849Z,102581.28
2022-12-18T22:59:28.190Z,102582.16
2022-12-18T23:02:42.129Z,102581.34
2022-12-18T23:06:10.351Z,102584.06
2022-12-18T23:09:19.381Z,102585.81
2022-12-18T23:12:24.566Z,102586.59
2022-12-18T23:15:28.861Z,102586.44
2022-12-18T23:18:34.338Z,102580.31
2022-12-18T23:21:38.402Z,102583.66
2022-12-18T23:24:43.102Z,102588.72
2022-12-18T23:27:45.803Z,102588.78
2022-12-18T23:30:48.546Z,102590.47
2022-12-18T23:33:57.404Z,102592.91
2022-12-18T23:37:01.516Z,102579.22
2022-12-18T23:40:14.565Z,102577.47
2022-12-18T23:43:17.332Z,102588.53
2022-12-18T23:47:21.656Z,102576.66
2022-12-18T23:50:38.560Z,102580.81
2022-12-18T23:53:56.994Z,102584.88
2022-12-18T23:57:13.984Z,102594.03
